createdAt,value
2022-12-08T00:01:11.331Z,10.30
2022-12-08T00:03:38.431Z,11.32
2022-12-08T00:06:24.625Z,12.38
2022-12-08T00:09:10.563Z,12.40
2022-12-08T00:11:37.542Z,12.73
2022-12-08T00:14:04.484Z,13.07
2022-12-08T00:16:31.386Z,12.55
2022-12-08T00:18:58.238Z,16.52
2022-12-08T00:21:25.199Z,15.43
2022-12-08T00:23:55.443Z,15.73
2022-12-08T00:26:22.554Z,13.25
2022-12-08T00:28:49.408Z,12.93
2022-12-08T00:31:16.318Z,14.63
2022-12-08T00:33:43.134Z,12.35
2022-12-08T00:36:12.217Z,17.45
2022-12-08T00:38:39.731Z,12.07
2022-12-08T00:41:13.520Z,19.88
2022-12-08T00:43:40.760Z,14.15
2022-12-08T00:46:07.875Z,16.40
2022-12-08T00:48:34.947Z,13.88
2022-12-08T00:51:01.791Z,17.13
2022-12-08T00:53:28.730Z,18.52
2022-12-08T00:55:55.664Z,17.45
2022-12-08T00:58:22.625Z,15.23
2022-12-08T01:00:49.721Z,12.63
2022-12-08T01:03:17.021Z,13.63
2022-12-08T01:05:44.639Z,13.88
2022-12-08T01:08:11.553Z,15.13
2022-12-08T01:10:39.631Z,17.77
2022-12-08T01:13:06.603Z,19.70
2022-12-08T01:15:33.533Z,14.15
2022-12-08T01:18:00.502Z,8.50
2022-12-08T01:20:27.508Z,11.32
2022-12-08T01:22:54.491Z,12.52
2022-12-08T01:25:21.336Z,12.50
2022-12-08T01:27:48.533Z,14.18
2022-12-08T01:30:15.551Z,12.77
2022-12-08T01:32:43.360Z,9.23
2022-12-08T01:35:10.398Z,14.43
2022-12-08T01:37:37.261Z,8.88
2022-12-08T01:40:04.682Z,10.10
2022-12-08T01:42:32.574Z,7.90
2022-12-08T01:45:03.262Z,7.60
2022-12-08T01:47:37.702Z,8.35
2022-12-08T01:50:08.606Z,7.43
2022-12-08T01:52:43.181Z,8.70
2022-12-08T01:55:20.105Z,6.15
2022-12-08T01:57:56.325Z,4.65
2022-12-08T02:00:23.533Z,4.75
2022-12-08T02:03:11.118Z,5.53
2022-12-08T02:05:39.742Z,7.32
2022-12-08T02:08:09.417Z,7.90
2022-12-08T02:10:42.800Z,10.35
2022-12-08T02:13:13.220Z,5.97
2022-12-08T02:16:17.763Z,8.13
2022-12-08T02:22:11.423Z,9.80
2022-12-08T02:25:07.989Z,10.10
2022-12-08T02:27:54.010Z,8.75
2022-12-08T02:30:43.435Z,10.63
2022-12-08T02:33:55.220Z,14.10
2022-12-08T02:36:52.612Z,11.18
2022-12-08T02:39:32.147Z,12.05
2022-12-08T02:42:30.137Z,15.75
2022-12-08T02:45:17.163Z,9.52
2022-12-08T02:47:44.853Z,10.55
2022-12-08T02:50:12.276Z,11.45
2022-12-08T02:52:44.720Z,17.52
2022-12-08T02:55:26.757Z,14.70
2022-12-08T02:58:12.007Z,13.73
2022-12-08T03:00:47.284Z,12.15
2022-12-08T03:03:28.978Z,15.40
2022-12-08T03:06:34.134Z,13.93
2022-12-08T03:09:40.062Z,16.60
2022-12-08T03:12:26.943Z,16.08
2022-12-08T03:14:56.862Z,19.42
2022-12-08T03:17:28.005Z,22.45
2022-12-08T03:19:58.495Z,20.85
2022-12-08T03:22:28.061Z,17.75
2022-12-08T03:24:56.678Z,17.52
2022-12-08T03:27:31.683Z,17.67
2022-12-08T03:30:01.626Z,18.65
2022-12-08T03:32:37.735Z,24.50
2022-12-08T03:35:09.248Z,26.40
2022-12-08T03:40:06.958Z,11.38
2022-12-08T03:42:34.008Z,12.80
2022-12-08T03:45:00.766Z,17.02
2022-12-08T03:47:27.533Z,13.43
2022-12-08T03:49:54.442Z,12.65
2022-12-08T03:52:21.368Z,11.07
2022-12-08T03:54:48.165Z,11.82
2022-12-08T03:57:15.168Z,15.10
2022-12-08T03:59:42.112Z,14.70
2022-12-08T04:02:09.111Z,9.40
2022-12-08T04:04:36.047Z,12.30
2022-12-08T04:07:02.812Z,13.20
2022-12-08T04:09:29.606Z,8.73
2022-12-08T04:11:56.533Z,8.43
2022-12-08T04:14:23.381Z,12.45
2022-12-08T04:16:50.076Z,6.82
2022-12-08T04:19:16.859Z,9.63
2022-12-08T04:21:43.610Z,10.40
2022-12-08T04:24:10.461Z,7.45
2022-12-08T04:26:37.336Z,5.63
2022-12-08T04:29:04.287Z,5.97
2022-12-08T04:31:31.178Z,5.47
2022-12-08T04:33:58.036Z,4.50
2022-12-08T04:36:24.907Z,5.38
2022-12-08T04:38:51.811Z,9.35
2022-12-08T04:41:18.758Z,13.73
2022-12-08T04:43:45.785Z,5.18
2022-12-08T04:46:13.166Z,2.80
2022-12-08T04:48:41.613Z,4.82
2022-12-08T04:51:17.170Z,8.70
2022-12-08T04:53:46.629Z,4.63
2022-12-08T04:56:19.070Z,6.57
2022-12-08T04:58:46.451Z,3.97
2022-12-08T05:01:14.190Z,9.45
2022-12-08T05:03:41.222Z,8.25
2022-12-08T05:06:10.118Z,7.30
2022-12-08T05:08:36.938Z,6.18
2022-12-08T05:11:09.750Z,6.68
2022-12-08T05:13:36.631Z,15.70
2022-12-08T05:16:09.575Z,5.03
2022-12-08T05:18:37.364Z,10.82
2022-12-08T05:21:04.984Z,10.75
2022-12-08T05:23:32.573Z,13.80
2022-12-08T05:25:59.522Z,10.20
2022-12-08T05:28:43.330Z,8.70
2022-12-08T05:31:12.682Z,11.00
2022-12-08T05:33:39.956Z,8.48
2022-12-08T05:36:07.655Z,6.82
2022-12-08T05:38:34.588Z,8.30
2022-12-08T05:41:01.507Z,7.68
2022-12-08T05:43:29.098Z,5.20
2022-12-08T05:45:56.033Z,8.23
2022-12-08T05:48:23.279Z,5.18
2022-12-08T05:50:51.333Z,3.15
2022-12-08T05:53:20.236Z,9.43
2022-12-08T05:55:48.638Z,6.07
2022-12-08T05:58:20.316Z,4.90
2022-12-08T06:00:47.655Z,3.50
2022-12-08T06:03:16.256Z,3.05
2022-12-08T06:05:44.674Z,2.80
2022-12-08T06:08:12.215Z,6.45
2022-12-08T06:10:43.903Z,4.35
2022-12-08T06:13:10.996Z,5.60
2022-12-08T06:15:39.347Z,6.28
2022-12-08T06:18:06.830Z,7.90
2022-12-08T06:20:34.102Z,5.63
2022-12-08T06:23:01.346Z,3.38
2022-12-08T06:25:28.145Z,3.40
2022-12-08T06:27:55.083Z,8.55
2022-12-08T06:30:21.930Z,2.88
2022-12-08T06:32:48.800Z,5.85
2022-12-08T06:35:15.617Z,4.13
2022-12-08T06:37:42.412Z,4.50
2022-12-08T06:40:09.687Z,6.35
2022-12-08T06:42:46.559Z,5.03
2022-12-08T06:45:15.517Z,3.47
2022-12-08T06:47:42.360Z,1.40
2022-12-08T06:50:10.741Z,2.33
2022-12-08T06:52:47.360Z,3.08
2022-12-08T06:55:35.520Z,2.47
2022-12-08T06:58:03.586Z,1.25
2022-12-08T07:00:30.572Z,6.32
2022-12-08T07:02:57.574Z,5.82
2022-12-08T07:05:24.514Z,2.55
2022-12-08T07:07:51.326Z,5.43
2022-12-08T07:10:18.416Z,4.53
2022-12-08T07:12:45.762Z,6.10
2022-12-08T07:15:12.561Z,5.15
2022-12-08T07:17:39.270Z,4.93
2022-12-08T07:20:07.279Z,7.28
2022-12-08T07:22:34.375Z,4.72
2022-12-08T07:25:01.294Z,4.93
2022-12-08T07:27:28.547Z,8.23
2022-12-08T07:29:55.450Z,6.32
2022-12-08T07:32:22.242Z,10.57
2022-12-08T07:34:49.276Z,10.18
2022-12-08T07:37:16.105Z,9.95
2022-12-08T07:39:43.159Z,6.43
2022-12-08T07:42:09.969Z,10.65
2022-12-08T07:44:36.890Z,11.18
2022-12-08T07:47:03.730Z,8.95
2022-12-08T07:49:30.545Z,8.18
2022-12-08T07:51:57.369Z,10.25
2022-12-08T07:54:24.175Z,25.33
2022-12-08T07:56:50.875Z,15.82
2022-12-08T07:59:19.554Z,9.10
2022-12-08T08:01:56.228Z,9.75
2022-12-08T08:04:34.353Z,9.43
2022-12-08T08:07:01.139Z,9.40
2022-12-08T08:09:30.728Z,8.45
2022-12-08T08:12:28.960Z,14.73
2022-12-08T08:14:44.439Z,12.60
2022-12-08T08:17:12.619Z,27.52
2022-12-08T08:19:39.506Z,17.45
2022-12-08T08:22:06.396Z,13.65
2022-12-08T08:24:33.219Z,14.40
2022-12-08T08:26:59.978Z,14.80
2022-12-08T08:29:26.735Z,11.02
2022-12-08T08:31:53.535Z,8.15
2022-12-08T08:34:20.332Z,9.25
2022-12-08T08:36:47.315Z,8.75
2022-12-08T08:39:14.174Z,13.13
2022-12-08T08:41:41.716Z,9.75
2022-12-08T08:44:08.597Z,4.90
2022-12-08T08:46:35.580Z,10.38
2022-12-08T08:49:02.508Z,8.13
2022-12-08T08:51:29.537Z,7.22
2022-12-08T08:53:56.939Z,5.07
2022-12-08T08:56:24.301Z,5.07
2022-12-08T08:58:52.529Z,4.00
2022-12-08T09:01:22.135Z,1.75
2022-12-08T09:03:49.813Z,6.22
2022-12-08T09:06:17.594Z,3.65
2022-12-08T09:08:45.198Z,2.63
2022-12-08T09:11:12.405Z,1.45
2022-12-08T09:13:39.426Z,1.88
2022-12-08T09:16:09.553Z,1.83
2022-12-08T09:18:36.567Z,4.05
2022-12-08T09:21:16.803Z,3.05
2022-12-08T09:23:44.174Z,4.53
2022-12-08T09:26:11.062Z,3.20
2022-12-08T09:28:38.385Z,5.85
2022-12-08T09:31:05.370Z,5.20
2022-12-08T09:33:32.228Z,6.72
2022-12-08T09:36:03.891Z,3.25
2022-12-08T09:38:31.136Z,4.30
2022-12-08T09:40:59.236Z,12.48
2022-12-08T09:43:44.375Z,5.15
2022-12-08T09:46:15.172Z,4.55
2022-12-08T09:48:47.907Z,7.15
2022-12-08T09:51:16.092Z,10.88
2022-12-08T09:53:59.985Z,4.50
2022-12-08T09:56:30.727Z,11.45
2022-12-08T09:59:06.133Z,8.47
2022-12-08T10:01:38.318Z,6.80
2022-12-08T10:04:22.464Z,5.15
2022-12-08T10:07:04.986Z,3.72
2022-12-08T10:09:43.804Z,3.53
2022-12-08T10:12:48.672Z,6.50
2022-12-08T10:15:36.036Z,5.95
2022-12-08T10:18:09.418Z,2.80
2022-12-08T10:20:40.304Z,3.85
2022-12-08T10:23:13.037Z,2.72
2022-12-08T10:25:51.039Z,3.17
2022-12-08T10:28:17.816Z,1.85
2022-12-08T10:30:44.634Z,5.47
2022-12-08T10:33:20.536Z,1.77
2022-12-08T10:35:49.719Z,5.57
2022-12-08T10:38:28.637Z,0.80
2022-12-08T10:41:20.798Z,5.75
2022-12-08T10:43:52.440Z,3.50
2022-12-08T10:46:22.277Z,6.97
2022-12-08T10:48:54.721Z,2.58
2022-12-08T10:51:43.009Z,2.67
2022-12-08T10:54:35.743Z,4.43
2022-12-08T10:57:02.692Z,7.63
2022-12-08T10:59:29.565Z,13.73
2022-12-08T11:01:57.624Z,44.75
2022-12-08T11:04:33.757Z,35.25
2022-12-08T11:07:00.808Z,12.18
2022-12-08T11:09:39.650Z,6.20
2022-12-08T11:12:20.313Z,4.10
2022-12-08T11:14:59.000Z,28.57
2022-12-08T11:17:28.379Z,10.35
2022-12-08T11:20:01.698Z,5.68
2022-12-08T11:22:33.139Z,3.88
2022-12-08T11:24:59.992Z,3.08
2022-12-08T11:27:27.038Z,3.33
2022-12-08T11:29:53.980Z,2.83
2022-12-08T11:32:21.536Z,3.03
2022-12-08T11:34:51.986Z,4.80
2022-12-08T11:37:34.719Z,2.40
2022-12-08T11:40:16.377Z,3.95
2022-12-08T11:43:12.436Z,7.38
2022-12-08T11:45:41.431Z,3.13
2022-12-08T11:48:32.217Z,5.75
2022-12-08T11:51:02.447Z,6.35
2022-12-08T11:53:51.735Z,4.85
2022-12-08T11:56:33.586Z,8.60
2022-12-08T11:59:15.743Z,4.25
2022-12-08T12:01:42.936Z,10.45
2022-12-08T12:04:39.718Z,5.07
2022-12-08T12:07:27.819Z,3.42
2022-12-08T12:10:33.923Z,6.28
2022-12-08T12:13:22.773Z,5.28
2022-12-08T12:16:14.430Z,3.20
2022-12-08T12:18:46.560Z,3.58
2022-12-08T12:21:31.442Z,3.40
2022-12-08T12:24:05.475Z,7.30
2022-12-08T12:26:37.273Z,4.78
2022-12-08T12:29:06.686Z,5.72
2022-12-08T12:31:41.519Z,3.55
2022-12-08T12:34:16.818Z,8.50
2022-12-08T12:36:53.737Z,6.78
2022-12-08T12:39:24.725Z,8.38
2022-12-08T12:42:00.355Z,3.33
2022-12-08T12:44:32.916Z,4.32
2022-12-08T12:47:01.633Z,6.38
2022-12-08T12:49:40.674Z,4.25
2022-12-08T12:52:16.463Z,4.15
2022-12-08T12:54:49.631Z,5.00
2022-12-08T12:57:23.251Z,3.08
2022-12-08T12:59:55.571Z,7.32
2022-12-08T13:02:44.056Z,5.28
2022-12-08T13:05:13.876Z,5.55
2022-12-08T13:07:45.887Z,3.08
2022-12-08T13:10:15.650Z,2.85
2022-12-08T13:12:44.832Z,2.63
2022-12-08T13:15:19.783Z,3.22
2022-12-08T13:17:48.997Z,4.32
2022-12-08T13:20:24.498Z,1.40
2022-12-08T13:22:54.110Z,4.13
2022-12-08T13:25:39.471Z,6.60
2022-12-08T13:28:30.348Z,3.38
2022-12-08T13:31:01.773Z,2.13
2022-12-08T13:33:31.614Z,23.27
2022-12-08T13:36:16.650Z,6.47
2022-12-08T13:38:46.520Z,4.13
2022-12-08T13:41:20.173Z,3.05
2022-12-08T13:44:56.710Z,4.72
2022-12-08T13:47:17.170Z,5.45
2022-12-08T13:58:32.562Z,11.10
2022-12-08T14:01:11.468Z,5.80
2022-12-08T14:06:46.705Z,15.82
2022-12-08T14:09:20.892Z,7.40
2022-12-08T14:12:03.575Z,7.97
2022-12-08T14:15:01.759Z,6.03
2022-12-08T14:17:26.616Z,5.15
2022-12-08T14:19:56.882Z,3.50
2022-12-08T14:22:23.747Z,5.70
2022-12-08T14:24:52.903Z,4.55
2022-12-08T14:27:34.046Z,5.38
2022-12-08T14:30:07.473Z,7.00
2022-12-08T14:32:47.174Z,4.43
2022-12-08T14:35:27.872Z,6.68
2022-12-08T14:38:05.578Z,7.97
2022-12-08T14:40:35.428Z,9.60
2022-12-08T14:43:12.430Z,10.95
2022-12-08T14:45:45.358Z,7.22
2022-12-08T14:48:38.513Z,7.47
2022-12-08T14:51:23.332Z,5.25
2022-12-08T14:54:09.485Z,5.97
2022-12-08T14:56:37.877Z,6.30
2022-12-08T14:59:31.316Z,10.82
2022-12-08T15:02:15.876Z,9.63
2022-12-08T15:04:46.308Z,5.95
2022-12-08T15:07:21.580Z,7.72
2022-12-08T15:10:06.412Z,9.40
2022-12-08T15:12:34.715Z,58.95
2022-12-08T15:15:10.599Z,47.05
2022-12-08T15:17:45.028Z,12.50
2022-12-08T15:20:38.793Z,9.48
2022-12-08T15:23:06.683Z,14.07
2022-12-08T15:25:33.624Z,10.23
2022-12-08T15:28:02.758Z,14.85
2022-12-08T15:30:30.294Z,11.23
2022-12-08T15:32:57.718Z,30.35
2022-12-08T15:35:24.532Z,11.23
2022-12-08T15:37:51.514Z,13.77
2022-12-08T15:40:20.762Z,27.10
2022-12-08T15:42:48.842Z,5.60
2022-12-08T15:45:17.639Z,5.82
2022-12-08T15:47:45.584Z,13.93
2022-12-08T15:50:17.844Z,10.27
2022-12-08T15:52:44.682Z,6.80
2022-12-08T15:55:13.853Z,10.45
2022-12-08T16:09:29.395Z,11.20
2022-12-08T16:12:14.944Z,17.00
2022-12-08T16:17:31.729Z,8.32
2022-12-08T16:19:59.002Z,13.88
2022-12-08T16:22:54.581Z,11.60
2022-12-08T16:25:19.919Z,18.95
2022-12-08T16:30:36.752Z,10.07
2022-12-08T16:33:04.163Z,14.07
2022-12-08T16:35:31.611Z,14.50
2022-12-08T16:37:58.735Z,12.02
2022-12-08T16:40:25.647Z,15.68
2022-12-08T16:42:52.521Z,13.73
2022-12-08T16:45:20.718Z,16.65
2022-12-08T16:47:49.933Z,12.98
2022-12-08T16:50:19.773Z,16.45
2022-12-08T16:52:47.450Z,19.25
2022-12-08T16:55:19.147Z,18.60
2022-12-08T16:57:47.419Z,16.67
2022-12-08T17:00:19.906Z,15.23
2022-12-08T17:02:47.431Z,17.67
2022-12-08T17:05:15.883Z,19.52
2022-12-08T17:07:43.944Z,16.13
2022-12-08T17:10:13.377Z,15.15
2022-12-08T17:12:40.483Z,19.17
2022-12-08T17:15:09.593Z,17.10
2022-12-08T17:17:36.671Z,17.70
2022-12-08T17:20:19.439Z,20.42
2022-12-08T17:22:46.794Z,18.15
2022-12-08T17:25:14.109Z,19.58
2022-12-08T17:27:41.796Z,19.92
2022-12-08T17:30:11.649Z,15.23
2022-12-08T17:32:39.326Z,18.33
2022-12-08T17:35:07.310Z,19.75
2022-12-08T17:37:34.491Z,19.55
2022-12-08T17:40:01.326Z,18.80
2022-12-08T17:42:28.070Z,20.73
2022-12-08T17:44:55.112Z,20.48
2022-12-08T17:47:22.368Z,23.95
2022-12-08T17:49:49.255Z,20.83
2022-12-08T17:52:16.140Z,20.75
2022-12-08T17:54:43.031Z,19.65
2022-12-08T17:57:09.815Z,17.00
2022-12-08T17:59:36.596Z,18.52
2022-12-08T18:02:04.538Z,18.90
2022-12-08T18:04:31.657Z,20.30
2022-12-08T18:07:00.879Z,20.27
2022-12-08T18:09:30.675Z,21.55
2022-12-08T18:11:57.591Z,22.25
2022-12-08T18:14:24.449Z,24.33
2022-12-08T18:16:51.301Z,21.10
2022-12-08T18:19:25.680Z,24.88
2022-12-08T18:21:52.478Z,27.83
2022-12-08T18:24:23.862Z,26.98
2022-12-08T18:26:55.330Z,24.17
2022-12-08T18:31:49.737Z,26.00
2022-12-08T18:34:19.003Z,33.33
2022-12-08T18:36:45.906Z,32.30
2022-12-08T18:39:26.479Z,34.85
2022-12-08T18:41:54.004Z,33.35
2022-12-08T18:44:20.979Z,27.75
2022-12-08T18:46:48.084Z,29.38
2022-12-08T18:49:18.936Z,29.30
2022-12-08T18:51:46.693Z,30.83
2022-12-08T18:54:14.178Z,35.40
2022-12-08T18:56:41.075Z,42.10
2022-12-08T18:59:11.294Z,47.08
2022-12-08T19:01:39.683Z,47.13
2022-12-08T19:06:56.701Z,34.70
2022-12-08T19:09:26.034Z,34.30
2022-12-08T19:11:53.086Z,33.35
2022-12-08T19:14:25.782Z,53.97
2022-12-08T19:16:54.611Z,49.88
2022-12-08T19:19:21.609Z,42.60
2022-12-08T19:21:48.418Z,37.50
2022-12-08T19:24:15.563Z,41.17
2022-12-08T19:26:42.909Z,37.67
2022-12-08T19:29:10.300Z,32.45
2022-12-08T19:31:37.547Z,33.65
2022-12-08T19:34:05.684Z,32.17
2022-12-08T19:36:35.670Z,46.03
2022-12-08T19:39:22.784Z,45.22
2022-12-08T19:42:09.558Z,70.28
2022-12-08T19:44:54.756Z,45.05
2022-12-08T19:47:27.143Z,50.47
2022-12-08T19:50:15.170Z,61.65
2022-12-08T19:52:42.364Z,54.95
2022-12-08T19:55:09.614Z,72.28
2022-12-08T19:57:38.765Z,81.53
2022-12-08T20:00:07.218Z,85.88
2022-12-08T20:02:34.380Z,86.70
2022-12-08T20:05:01.354Z,80.60
2022-12-08T20:07:28.278Z,95.60
2022-12-08T20:09:55.121Z,108.93
2022-12-08T20:12:21.866Z,109.30
2022-12-08T20:14:48.681Z,105.05
2022-12-08T20:17:15.632Z,118.22
2022-12-08T20:19:42.522Z,110.13
2022-12-08T20:22:09.302Z,110.72
2022-12-08T20:24:36.375Z,146.50
2022-12-08T20:27:03.196Z,118.53
2022-12-08T20:29:30.042Z,135.20
2022-12-08T20:31:56.907Z,121.28
2022-12-08T20:34:31.401Z,116.82
2022-12-08T20:36:58.125Z,120.43
2022-12-08T20:39:25.069Z,118.00
2022-12-08T20:41:54.296Z,111.20
2022-12-08T20:44:21.189Z,108.93
2022-12-08T20:46:49.755Z,110.32
2022-12-08T20:49:17.040Z,106.78
2022-12-08T20:51:44.506Z,111.68
2022-12-08T20:54:11.634Z,121.97
2022-12-08T20:56:44.797Z,166.00
2022-12-08T20:59:18.374Z,159.57
2022-12-08T21:01:45.458Z,164.00
2022-12-08T21:04:13.483Z,137.73
2022-12-08T21:06:40.634Z,123.43
2022-12-08T21:09:07.707Z,126.50
2022-12-08T21:11:35.888Z,153.00
2022-12-08T21:14:03.274Z,189.73
2022-12-08T21:16:30.324Z,166.70
2022-12-08T21:18:57.356Z,139.63
2022-12-08T21:21:24.490Z,126.53
2022-12-08T21:23:51.313Z,118.28
2022-12-08T21:26:20.549Z,128.52
2022-12-08T21:28:47.888Z,138.57
2022-12-08T21:31:18.011Z,123.30
2022-12-08T21:33:45.463Z,126.25
2022-12-08T21:36:15.961Z,128.18
2022-12-08T21:38:44.249Z,127.07
2022-12-08T21:41:16.870Z,140.85
2022-12-08T21:43:43.826Z,133.20
2022-12-08T21:46:19.132Z,130.77
2022-12-08T21:48:46.532Z,132.25
2022-12-08T21:51:19.629Z,135.52
2022-12-08T21:53:46.948Z,146.90
2022-12-08T21:56:13.852Z,140.32
2022-12-08T21:58:40.920Z,127.03
2022-12-08T22:01:09.444Z,137.57
2022-12-08T22:03:37.214Z,143.73
2022-12-08T22:06:09.779Z,146.65
2022-12-08T22:08:37.389Z,183.07
2022-12-08T22:11:06.048Z,159.20
2022-12-08T22:13:37.722Z,154.52
2022-12-08T22:16:07.581Z,170.00
2022-12-08T22:18:35.513Z,147.90
2022-12-08T22:21:07.292Z,150.73
2022-12-08T22:23:34.171Z,150.45
2022-12-08T22:26:02.503Z,186.02
2022-12-08T22:28:33.602Z,150.05
2022-12-08T22:31:00.850Z,177.15
2022-12-08T22:33:30.689Z,168.43
2022-12-08T22:36:04.767Z,175.05
2022-12-08T22:38:35.160Z,170.18
2022-12-08T22:41:04.931Z,169.13
2022-12-08T22:43:31.783Z,158.40
2022-12-08T22:45:58.699Z,162.02
2022-12-08T22:48:26.159Z,173.07
2022-12-08T22:50:59.722Z,194.45
2022-12-08T22:53:26.553Z,177.75
2022-12-08T22:55:53.477Z,174.48
2022-12-08T22:58:20.841Z,196.25
2022-12-08T23:00:48.007Z,199.18
2022-12-08T23:03:14.913Z,190.05
2022-12-08T23:05:42.029Z,196.55
2022-12-08T23:08:13.090Z,208.50
2022-12-08T23:10:40.615Z,220.00
2022-12-08T23:13:07.561Z,185.40
2022-12-08T23:15:34.404Z,192.55
2022-12-08T23:18:01.354Z,166.27
2022-12-08T23:20:28.250Z,178.48
2022-12-08T23:22:55.230Z,186.20
2022-12-08T23:25:22.105Z,174.52
2022-12-08T23:27:49.016Z,169.93
2022-12-08T23:30:16.023Z,188.77
2022-12-08T23:32:43.012Z,172.45
2022-12-08T23:35:10.015Z,170.25
2022-12-08T23:37:37.506Z,184.27
2022-12-08T23:40:05.516Z,181.93
2022-12-08T23:42:33.016Z,182.30
2022-12-08T23:44:59.880Z,183.52
2022-12-08T23:47:26.762Z,166.63
2022-12-08T23:49:53.627Z,179.65
2022-12-08T23:52:20.629Z,178.85
2022-12-08T23:54:50.304Z,176.55
2022-12-08T23:57:17.432Z,172.98
